Time;durP1;ratioP1;P1;durP2;ratioP2;P2;SDS_P1;SDS_P2;PMS_P1;PMS_P2;Temp;Humidity;BMP_temperature;BMP_pressure;BME280_temperature;BME280_humidity;BME280_pressure;Samples;Min_cycle;Max_cycle;Signal;HPM_P1;HPM_P2
2021/12/04 00:00:35;;;;;;;20.90;9.07;;;;;;;-1.86;74.42;99390.91;4917729;29;19930;-62
2021/12/04 00:03:07;;;;;;;26.35;10.80;;;;;;;-1.91;74.29;99377.34;4917738;29;20138;-62
2021/12/04 00:05:38;;;;;;;19.55;10.35;;;;;;;-1.86;74.65;99380.91;4917919;29;20052;-62
2021/12/04 00:08:12;;;;;;;22.20;10.15;;;;;;;-1.94;74.10;99382.19;4917554;29;20048;-62
2021/12/04 00:10:42;;;;;;;25.35;10.60;;;;;;;-1.97;74.39;99371.22;4917543;29;20049;-62
2021/12/04 00:13:14;;;;;;;19.58;9.48;;;;;;;-1.97;74.29;99379.59;4917503;29;20040;-62
2021/12/04 00:15:44;;;;;;;23.30;9.85;;;;;;;-1.93;74.00;99381.44;4917774;29;20237;-62
2021/12/04 00:18:16;;;;;;;21.95;9.50;;;;;;;-2.15;73.76;99356.28;4917439;29;20056;-63
2021/12/04 00:20:48;;;;;;;24.02;10.77;;;;;;;-2.17;73.88;99368.72;4917440;29;20063;-62
2021/12/04 00:23:23;;;;;;;26.17;10.43;;;;;;;-2.23;74.21;99375.09;4917454;29;20074;-62
2021/12/04 00:25:55;;;;;;;25.60;10.88;;;;;;;-2.12;74.33;99368.91;4930931;29;20047;-62
2021/12/04 00:28:27;;;;;;;28.13;10.88;;;;;;;-2.11;74.47;99348.13;4955480;28;20150;-63
2021/12/04 00:31:05;;;;;;;19.80;10.13;;;;;;;-1.96;74.22;99351.28;4955745;29;20051;-63
2021/12/04 00:33:39;;;;;;;22.65;9.70;;;;;;;-2.04;74.30;99355.13;4955726;29;20516;-64
2021/12/04 00:36:23;;;;;;;20.88;8.57;;;;;;;-2.06;74.29;99354.16;4955479;28;20047;-64
2021/12/04 00:49:45;;;;;;;18.55;8.15;;;;;;;-2.57;74.12;99317.78;4955199;28;20165;-63
2021/12/04 00:52:17;;;;;;;18.95;8.45;;;;;;;-2.34;74.30;99343.78;4955604;28;20110;-63
2021/12/04 00:58:08;;;;;;;14.95;5.93;;;;;;;-2.43;74.39;99355.84;4915889;29;20044;-64
2021/12/04 01:00:41;;;;;;;16.92;7.80;;;;;;;-2.48;73.81;99354.78;4917096;29;20068;-64
2021/12/04 01:03:14;;;;;;;18.17;8.05;;;;;;;-2.45;74.19;99369.94;4917129;29;20520;-63
2021/12/04 01:05:43;;;;;;;16.85;7.28;;;;;;;-2.40;74.40;99373.50;4917083;29;20111;-63
2021/12/04 01:08:15;;;;;;;21.33;8.13;;;;;;;-2.26;74.46;99372.47;4917073;29;20044;-63
2021/12/04 01:10:45;;;;;;;18.60;8.75;;;;;;;-2.11;74.45;99363.13;4916900;29;20052;-63
2021/12/04 01:13:20;;;;;;;;;;;;;;;-2.07;74.37;99360.84;4917440;29;20517;-63
2021/12/04 01:15:49;;;;;;;14.75;7.13;;;;;;;-1.94;74.07;99362.19;4920442;29;20013;-63
2021/12/04 01:18:22;;;;;;;17.95;7.47;;;;;;;-1.85;74.38;99360.13;4920521;29;20036;-63
2021/12/04 01:20:51;;;;;;;16.83;7.72;;;;;;;-1.94;74.77;99327.19;4920480;29;20121;-63
2021/12/04 01:23:24;;;;;;;19.65;8.07;;;;;;;-1.76;74.17;99348.00;4920976;29;20036;-63
2021/12/04 01:25:53;;;;;;;16.90;7.47;;;;;;;-1.78;74.22;99348.72;4920745;29;20072;-63
2021/12/04 01:28:27;;;;;;;17.75;8.80;;;;;;;-1.88;73.77;99341.63;4920686;29;20143;-63
2021/12/04 01:34:31;;;;;;;17.40;7.00;;;;;;;-1.91;73.79;99329.84;4919666;29;20107;-67
2021/12/04 01:37:01;;;;;;;18.25;7.57;;;;;;;-2.18;73.21;99331.16;4920228;29;20111;-69
2021/12/04 01:39:33;;;;;;;16.27;7.80;;;;;;;-2.20;73.50;99327.72;4920161;29;20044;-69
2021/12/04 01:42:06;;;;;;;17.42;7.57;;;;;;;-2.54;73.70;99307.09;4920097;29;20131;-67
2021/12/04 01:44:40;;;;;;;18.80;7.95;;;;;;;-2.46;73.65;99313.25;4920396;29;20047;-64
2021/12/04 01:47:14;;;;;;;18.55;8.02;;;;;;;-2.52;73.86;99308.00;4920049;29;20052;-65
2021/12/04 01:49:48;;;;;;;15.48;7.50;;;;;;;-2.40;73.84;99313.53;4919950;29;20052;-64
2021/12/04 01:52:20;;;;;;;19.30;7.95;;;;;;;-2.85;73.67;99288.22;4919949;29;20060;-67
2021/12/04 01:54:53;;;;;;;15.45;7.65;;;;;;;-2.73;73.42;99316.22;4920286;29;20494;-69
2021/12/04 01:57:24;;;;;;;23.80;8.73;;;;;;;-2.84;74.27;99302.41;4922146;29;20048;-73
2021/12/04 01:59:57;;;;;;;14.38;7.03;;;;;;;-2.79;74.31;99303.47;4923545;29;20044;-71
2021/12/04 02:02:27;;;;;;;19.55;7.35;;;;;;;-2.85;74.01;99287.34;4920715;29;20470;-66
2021/12/04 02:05:00;;;;;;;21.58;8.25;;;;;;;-2.83;74.07;99301.59;4919704;29;20502;-67
2021/12/04 02:07:30;;;;;;;21.80;7.90;;;;;;;-2.78;74.29;99312.66;4919701;29;20068;-69
2021/12/04 02:10:05;;;;;;;16.48;7.18;;;;;;;-2.86;73.71;99289.00;4919884;29;20040;-67
2021/12/04 02:12:35;;;;;;;20.35;7.93;;;;;;;-2.76;74.39;99313.59;4919560;29;20056;-67
2021/12/04 02:15:12;;;;;;;15.00;7.05;;;;;;;-2.68;74.24;99305.59;4919551;29;20508;-69
2021/12/04 02:17:49;;;;;;;15.90;7.03;;;;;;;-2.54;74.10;99304.59;4919792;29;20051;-69
2021/12/04 02:20:25;;;;;;;16.67;7.32;;;;;;;-2.56;74.35;99296.13;4919744;29;20044;-66
2021/12/04 02:22:58;;;;;;;17.95;7.38;;;;;;;-2.59;73.86;99283.53;4919354;29;20561;-67
2021/12/04 02:25:30;;;;;;;15.65;7.75;;;;;;;-2.60;74.21;99289.31;4919274;29;20146;-66
2021/12/04 02:28:05;;;;;;;17.02;7.68;;;;;;;-2.61;74.45;99297.56;4918637;29;20052;-66
2021/12/04 02:30:40;;;;;;;13.45;7.40;;;;;;;-2.58;74.04;99285.22;4919219;29;20048;-67
2021/12/04 02:33:14;;;;;;;19.23;7.93;;;;;;;-2.60;73.51;99289.31;4927382;29;20055;-67
2021/12/04 02:35:51;;;;;;;13.70;6.38;;;;;;;-2.66;73.55;99279.06;4938449;29;20375;-67
2021/12/04 02:38:26;;;;;;;14.52;6.20;;;;;;;-2.76;73.84;99268.66;4938113;29;20063;-66
2021/12/04 02:41:01;;;;;;;16.67;6.70;;;;;;;-2.61;73.59;99272.59;4938101;29;20446;-67
2021/12/04 02:43:35;;;;;;;14.13;6.13;;;;;;;-2.85;73.94;99267.38;4937037;29;20044;-67
2021/12/04 02:46:08;;;;;;;16.65;6.50;;;;;;;-2.97;73.99;99272.69;4938285;29;20405;-66
2021/12/04 02:48:42;;;;;;;13.75;6.38;;;;;;;-3.00;74.36;99269.22;4937913;29;20071;-68
2021/12/04 02:51:16;;;;;;;14.40;6.22;;;;;;;-3.02;74.13;99259.13;4938247;29;20046;-67
2021/12/04 02:53:49;;;;;;;10.40;5.57;;;;;;;-3.09;74.07;99259.66;4937816;29;20056;-68
2021/12/04 02:56:21;;;;;;;19.08;6.43;;;;;;;-3.10;74.59;99265.44;4938176;29;20051;-66
2021/12/04 02:59:00;;;;;;;14.48;5.50;;;;;;;-3.10;74.61;99262.94;4937720;29;20048;-68
2021/12/04 03:01:33;;;;;;;14.30;5.68;;;;;;;-3.23;74.65;99265.63;4937962;29;20464;-67
2021/12/04 03:04:10;;;;;;;11.52;5.22;;;;;;;-3.25;74.61;99259.72;4937705;29;20079;-68
2021/12/04 03:06:46;;;;;;;9.80;4.97;;;;;;;-3.06;74.27;99259.78;4937593;29;20052;-67
2021/12/04 03:09:16;;;;;;;17.80;5.32;;;;;;;-3.08;74.20;99258.00;4937565;29;20068;-65
2021/12/04 03:11:48;;;;;;;11.35;5.68;;;;;;;-2.96;74.07;99264.41;4937652;29;20052;-65
2021/12/04 03:14:22;;;;;;;10.68;4.97;;;;;;;-3.27;74.14;99246.34;4937991;29;20107;-67
2021/12/04 03:16:54;;;;;;;11.50;5.15;;;;;;;-3.31;74.82;99254.44;4937778;29;20051;-65
2021/12/04 03:19:27;;;;;;;10.68;4.70;;;;;;;-3.22;74.85;99264.00;4937361;29;20139;-64
2021/12/04 03:22:02;;;;;;;13.98;5.40;;;;;;;-2.97;75.48;99250.22;4937345;29;20044;-65
2021/12/04 03:24:36;;;;;;;10.15;4.80;;;;;;;-2.81;74.87;99242.63;4937615;29;20090;-65
2021/12/04 03:27:08;;;;;;;9.02;4.85;;;;;;;-2.76;74.74;99243.69;4937259;29;20058;-67
2021/12/04 03:29:43;;;;;;;11.20;5.60;;;;;;;-2.65;74.52;99240.81;4937526;29;20134;-68
2021/12/04 03:32:46;;;;;;;10.57;4.88;;;;;;;-2.61;74.74;99252.63;4936252;29;20054;-67
2021/12/04 03:40:01;;;;;;;10.40;4.72;;;;;;;-2.59;74.86;99243.59;4937093;29;20051;-67
2021/12/04 03:41:09;;;;;;;9.85;4.80;;;;;;;-2.47;74.38;99236.63;4900456;29;20426;-68
2021/12/04 03:43:41;;;;;;;9.73;4.43;;;;;;;-2.43;74.40;99233.47;4915877;29;20379;-68
2021/12/04 03:46:18;;;;;;;9.77;4.18;;;;;;;-2.51;74.01;99234.75;4915990;29;20047;-66
2021/12/04 03:48:52;;;;;;;8.95;4.57;;;;;;;-2.53;73.88;99238.84;4915844;29;20044;-68
2021/12/04 03:51:24;;;;;;;11.38;4.40;;;;;;;-2.47;74.60;99227.47;4915726;29;20155;-67
2021/12/04 03:53:55;;;;;;;10.20;5.03;;;;;;;-2.41;74.26;99221.88;4916026;29;20056;-67
2021/12/04 03:56:29;;;;;;;10.38;4.60;;;;;;;-2.58;73.68;99237.78;4925946;29;20491;-66
2021/12/04 03:59:01;;;;;;;8.05;3.92;;;;;;;-2.98;73.87;99218.56;4936711;29;20048;-66
2021/12/04 04:01:34;;;;;;;8.27;4.10;;;;;;;-2.94;74.00;99217.06;4936962;29;20078;-67
2021/12/04 04:04:06;;;;;;;9.02;4.03;;;;;;;-2.88;74.01;99227.34;4936648;29;20050;-68
2021/12/04 04:06:35;;;;;;;9.65;4.25;;;;;;;-2.87;74.09;99224.88;4936589;29;20048;-67
2021/12/04 04:09:06;;;;;;;8.52;4.35;;;;;;;-2.95;73.81;99213.69;4936503;29;20063;-66
2021/12/04 04:11:36;;;;;;;10.98;4.22;;;;;;;-3.08;73.53;99218.94;4936757;29;20047;-66
2021/12/04 04:14:06;;;;;;;7.93;3.80;;;;;;;-3.06;73.43;99212.38;4936521;29;20068;-67
2021/12/04 04:16:37;;;;;;;;;;;;;;;-3.13;73.63;99217.88;4937068;29;20040;-65
2021/12/04 04:19:07;;;;;;;12.68;4.35;;;;;;;-3.12;73.75;99217.06;4936761;29;19922;-67
2021/12/04 04:21:39;;;;;;;10.85;4.47;;;;;;;-2.99;74.13;99219.34;4936981;29;20040;-69
2021/12/04 04:24:12;;;;;;;11.23;4.63;;;;;;;-3.11;73.75;99218.81;4936472;29;20404;-67
2021/12/04 04:26:43;;;;;;;8.73;4.22;;;;;;;-3.11;73.76;99213.81;4936323;29;20051;-65
2021/12/04 04:29:14;;;;;;;11.48;4.05;;;;;;;-3.29;74.10;99217.13;4936933;29;20048;-66
2021/12/04 04:31:46;;;;;;;9.20;4.35;;;;;;;-3.24;74.17;99206.56;4936529;29;20108;-68
2021/12/04 04:34:22;;;;;;;8.85;4.50;;;;;;;-3.27;73.75;99191.47;4936169;29;20093;-69
2021/12/04 04:37:09;;;;;;;7.85;4.00;;;;;;;-3.25;73.97;99194.88;4936485;29;20052;-66
2021/12/04 04:58:26;;;;;;;11.80;4.60;;;;;;;-3.49;75.19;99137.25;4940092;29;20047;-67
2021/12/04 05:11:40;;;;;;;11.93;4.35;;;;;;;-3.37;73.82;99129.47;4939851;29;20066;-67
2021/12/04 05:14:17;;;;;;;14.75;5.43;;;;;;;-3.65;74.24;99116.56;4939926;29;20047;-66
2021/12/04 05:16:50;;;;;;;14.25;5.75;;;;;;;-3.69;74.83;99119.69;4939807;29;20048;-67
2021/12/04 05:21:58;;;;;;;6.03;3.40;;;;;;;-3.61;74.90;99138.34;4939861;29;20039;-68
2021/12/04 05:24:27;;;;;;;11.40;5.03;;;;;;;-3.63;74.39;99144.91;4939456;29;20760;-67
2021/12/04 05:26:57;;;;;;;10.77;4.75;;;;;;;-3.63;74.87;99132.44;4939625;29;20044;-68
2021/12/04 05:29:26;;;;;;;14.05;4.95;;;;;;;-3.64;74.57;99133.19;4939669;29;20492;-64
2021/12/04 05:31:55;;;;;;;13.57;6.18;;;;;;;-3.68;74.47;99126.38;4939243;29;20072;-64
2021/12/04 05:34:24;;;;;;;14.40;5.82;;;;;;;-3.65;74.80;99126.53;4939160;29;20044;-66
2021/12/04 05:36:54;;;;;;;15.65;6.88;;;;;;;-3.58;74.54;99126.03;4939211;29;20046;-68
2021/12/04 05:39:22;;;;;;;15.32;6.43;;;;;;;-3.56;74.60;99139.41;4939265;29;20499;-65
2021/12/04 05:41:52;;;;;;;13.77;5.70;;;;;;;-3.68;74.94;99126.38;4939102;29;20052;-68
2021/12/04 05:44:25;;;;;;;11.05;6.13;;;;;;;-3.56;74.59;99125.31;4939059;29;20056;-66
2021/12/04 05:46:59;;;;;;;14.35;5.72;;;;;;;-3.50;74.41;99127.19;4939381;29;20102;-66
2021/12/04 05:49:32;;;;;;;11.93;4.88;;;;;;;-3.47;74.21;99130.69;4939296;29;20050;-66
2021/12/04 05:52:11;;;;;;;12.15;5.15;;;;;;;-3.76;74.23;99092.75;4941311;29;20430;-67
2021/12/04 05:55:08;;;;;;;9.15;4.85;;;;;;;-3.64;74.65;99123.22;4941571;29;20067;-69
2021/12/04 05:57:38;;;;;;;12.35;4.80;;;;;;;-3.75;74.69;99110.31;4938816;29;20047;-65
2021/12/04 06:00:12;;;;;;;10.95;4.75;;;;;;;-3.42;74.67;99123.41;4938348;29;20048;-65
2021/12/04 06:02:42;;;;;;;10.38;4.45;;;;;;;-3.47;74.86;99114.88;4938730;29;20573;-66
2021/12/04 06:05:12;;;;;;;9.98;4.45;;;;;;;-3.50;74.62;99112.25;4939028;29;20078;-66
2021/12/04 06:07:41;;;;;;;9.95;5.13;;;;;;;-3.42;74.16;99116.81;4938704;29;20059;-66
2021/12/04 06:10:10;;;;;;;13.40;5.43;;;;;;;-3.22;74.75;99122.69;4938977;29;20048;-66
2021/12/04 06:12:40;;;;;;;13.45;6.47;;;;;;;-3.16;74.36;99117.94;4938640;29;20097;-67
2021/12/04 06:15:11;;;;;;;9.35;5.10;;;;;;;-3.16;74.60;99129.56;4938801;29;20046;-66
2021/12/04 06:17:40;;;;;;;9.90;4.95;;;;;;;-3.06;74.51;99127.53;4938747;29;20055;-67
2021/12/04 06:22:48;;;;;;;14.55;5.57;;;;;;;-2.95;74.88;99123.84;4938704;29;20071;-66
2021/12/04 06:25:19;;;;;;;15.00;6.45;;;;;;;-2.94;74.72;99123.06;4938621;29;20050;-66
2021/12/04 06:27:48;;;;;;;15.23;6.63;;;;;;;-2.85;75.15;99123.47;4938356;29;20071;-66
2021/12/04 06:30:20;;;;;;;14.40;5.70;;;;;;;-2.67;74.65;99117.53;4938412;29;20044;-65
2021/12/04 06:32:51;;;;;;;14.13;6.65;;;;;;;-2.65;75.07;99115.97;4937890;29;20302;-66
2021/12/04 06:35:23;;;;;;;14.30;7.35;;;;;;;-2.58;74.91;99130.41;4938114;29;20055;-67
2021/12/04 06:37:52;;;;;;;14.05;6.15;;;;;;;-2.50;75.17;99126.59;4938139;29;20059;-66
2021/12/04 06:40:26;;;;;;;12.85;6.65;;;;;;;-2.46;74.94;99119.28;4938446;29;20051;-70
2021/12/04 06:42:56;;;;;;;12.75;7.00;;;;;;;-2.44;74.62;99111.84;4938292;29;20086;-67
2021/12/04 06:45:30;;;;;;;16.23;7.18;;;;;;;-2.35;75.22;99117.22;4937978;29;20083;-67
2021/12/04 06:48:02;;;;;;;16.55;7.63;;;;;;;-2.25;75.08;99124.28;4937978;29;20122;-67
2021/12/04 06:50:38;;;;;;;15.18;6.97;;;;;;;-2.12;74.85;99124.00;4938426;29;20048;-66
2021/12/04 06:53:17;;;;;;;13.30;6.22;;;;;;;-2.04;74.99;99115.16;4938115;29;20044;-68
2021/12/04 06:55:49;;;;;;;13.32;6.45;;;;;;;-2.00;74.81;99111.97;4938025;29;20048;-67
2021/12/04 06:58:18;;;;;;;21.38;7.70;;;;;;;-1.79;74.84;99111.94;4937780;29;20047;-68
2021/12/04 07:00:49;;;;;;;13.75;6.47;;;;;;;-1.81;74.09;99119.41;4937603;29;20054;-66
2021/12/04 07:03:18;;;;;;;16.30;7.88;;;;;;;-1.83;74.47;99108.50;4937660;29;20043;-70
2021/12/04 07:05:48;;;;;;;18.23;7.00;;;;;;;-1.75;74.16;99099.63;4937516;29;20040;-68
2021/12/04 07:08:17;;;;;;;13.15;6.78;;;;;;;-1.92;74.01;99117.28;4937470;29;20055;-69
2021/12/04 07:10:46;;;;;;;14.88;6.68;;;;;;;-1.89;74.45;99108.25;4937579;29;20489;-66
2021/12/04 07:13:15;;;;;;;12.70;6.53;;;;;;;-1.73;74.19;99108.06;4951318;29;20127;-67
2021/12/04 07:15:45;;;;;;;17.08;7.25;;;;;;;-1.84;74.08;99110.91;4937424;29;20047;-66
2021/12/04 07:18:16;;;;;;;13.98;6.70;;;;;;;-1.67;74.50;99107.41;4937418;29;20059;-69
2021/12/04 07:20:45;;;;;;;16.63;7.15;;;;;;;-1.62;74.15;99105.94;4937207;29;20417;-69
2021/12/04 07:23:14;;;;;;;14.35;6.90;;;;;;;-1.52;74.32;99098.00;4937270;29;20040;-65
2021/12/04 07:25:43;;;;;;;;;;;;;;;-1.49;74.12;99106.44;4937524;29;20107;-68
2021/12/04 07:28:12;;;;;;;16.25;6.57;;;;;;;-1.34;74.51;99097.81;4936607;29;19926;-67
2021/12/04 07:30:41;;;;;;;16.45;7.43;;;;;;;-1.24;74.16;99095.69;4936453;29;20058;-67
2021/12/04 07:33:10;;;;;;;21.13;7.78;;;;;;;-1.10;nan;99091.16;4936144;29;20486;-67
2021/12/04 07:35:41;;;;;;;15.80;6.45;;;;;;;-0.93;74.15;99087.59;4936488;29;20374;-67
2021/12/04 07:38:10;;;;;;;18.13;8.02;;;;;;;-0.80;73.79;99079.72;4936985;29;20047;-69
2021/12/04 07:40:39;;;;;;;23.80;10.20;;;;;;;-0.82;73.84;99081.34;4937268;29;20036;-67
2021/12/04 07:43:08;;;;;;;19.65;9.50;;;;;;;-0.72;73.87;99089.19;4937148;29;20070;-66
2021/12/04 07:45:38;;;;;;;22.27;10.55;;;;;;;-0.64;73.66;99086.09;4936922;29;20075;-68
2021/12/04 07:48:07;;;;;;;18.95;8.80;;;;;;;-0.66;73.69;99086.03;4936785;29;20048;-69
2021/12/04 07:50:37;;;;;;;17.42;8.07;;;;;;;-0.56;73.71;99078.03;4936758;29;20040;-68
2021/12/04 07:53:07;;;;;;;19.00;8.95;;;;;;;-0.50;73.49;99084.88;4936900;29;20047;-67
2021/12/04 07:55:36;;;;;;;19.27;8.48;;;;;;;-0.51;73.33;99071.53;4936374;29;20052;-66
2021/12/04 07:58:05;;;;;;;17.60;9.13;;;;;;;-0.43;73.13;99077.63;4937021;29;20508;-68
2021/12/04 08:00:35;;;;;;;16.10;7.53;;;;;;;-0.45;72.92;99064.19;4936165;29;20047;-67
2021/12/04 08:03:04;;;;;;;19.23;8.05;;;;;;;-0.39;72.66;99069.44;4936522;29;20070;-68
2021/12/04 08:05:35;;;;;;;19.23;8.43;;;;;;;-0.36;72.55;99064.50;4936456;29;20054;-66
2021/12/04 08:08:05;;;;;;;17.13;8.55;;;;;;;-0.29;72.96;99055.53;4936528;29;20047;-67
2021/12/04 08:10:36;;;;;;;17.05;7.22;;;;;;;-0.19;72.65;99063.38;4936533;29;20390;-68
2021/12/04 08:13:06;;;;;;;14.20;7.93;;;;;;;-0.09;72.55;99051.97;4938222;29;20053;-69
2021/12/04 08:15:37;;;;;;;19.00;8.35;;;;;;;-0.11;72.69;99056.94;4942645;29;20135;-68
2021/12/04 08:18:10;;;;;;;17.17;7.57;;;;;;;0.03;72.71;99064.03;4949877;28;20043;-69
2021/12/04 08:20:39;;;;;;;13.05;5.63;;;;;;;0.12;72.61;99064.34;4955514;29;20039;-68
2021/12/04 08:23:08;;;;;;;28.63;10.07;;;;;;;0.26;72.72;99063.09;4955290;28;20047;-68
2021/12/04 08:25:39;;;;;;;29.45;13.07;;;;;;;0.32;72.76;99064.13;4955475;28;20147;-67
2021/12/04 08:28:08;;;;;;;27.33;11.38;;;;;;;0.40;72.90;99056.81;4954674;28;20051;-67
2021/12/04 08:30:40;;;;;;;22.47;9.93;;;;;;;0.47;72.57;99058.69;4936031;29;20056;-68
2021/12/04 08:33:10;;;;;;;18.60;9.07;;;;;;;0.50;72.92;99053.75;4936409;29;20083;-68
2021/12/04 08:35:40;;;;;;;17.48;8.52;;;;;;;0.52;73.08;99042.09;4936820;29;20062;-69
2021/12/04 08:38:11;;;;;;;15.02;8.20;;;;;;;0.51;72.80;99051.28;4941621;29;20073;-67
2021/12/04 08:40:42;;;;;;;18.77;9.48;;;;;;;0.46;72.53;99046.94;4936279;29;20524;-69
2021/12/04 08:43:13;;;;;;;17.05;8.35;;;;;;;0.47;72.94;99053.66;4938387;29;20524;-66
2021/12/04 08:45:43;;;;;;;16.67;7.88;;;;;;;0.47;73.24;99038.59;4938810;29;20048;-68
2021/12/04 08:48:13;;;;;;;17.80;8.15;;;;;;;0.58;72.85;99039.75;4936111;29;20056;-68
2021/12/04 08:50:42;;;;;;;18.75;8.65;;;;;;;0.66;73.30;99030.78;4939756;29;20082;-66
2021/12/04 08:53:11;;;;;;;22.05;9.45;;;;;;;0.72;73.37;99035.97;4938953;28;20043;-69
2021/12/04 08:55:43;;;;;;;20.25;9.90;;;;;;;0.77;73.54;99026.91;4936304;29;20043;-68
2021/12/04 08:58:13;;;;;;;21.10;9.50;;;;;;;0.88;73.39;99033.06;4936060;29;20054;-68
2021/12/04 09:00:48;;;;;;;;;;;;;;;0.90;73.55;99023.91;4936643;29;20078;-68
2021/12/04 09:03:20;;;;;;;19.70;8.63;;;;;;;0.97;73.19;99023.28;4936069;29;19923;-70
2021/12/04 09:05:50;;;;;;;16.42;9.07;;;;;;;1.05;73.22;99024.31;4935018;29;20150;-66
2021/12/04 09:08:20;;;;;;;18.00;9.07;;;;;;;1.03;73.27;99017.56;4936750;29;20062;-68
2021/12/04 09:10:51;;;;;;;16.75;9.02;;;;;;;1.11;73.69;99016.94;4936244;29;20082;-67
2021/12/04 09:13:20;;;;;;;21.95;9.65;;;;;;;1.16;73.20;99010.38;4935786;29;20058;-69
2021/12/04 09:15:50;;;;;;;20.92;10.13;;;;;;;1.15;73.48;98997.78;4942374;29;20047;-67
2021/12/04 09:18:19;;;;;;;22.15;10.05;;;;;;;1.30;73.90;99001.50;4941301;28;20056;-70
2021/12/04 09:20:50;;;;;;;22.10;10.55;;;;;;;1.26;73.59;99012.31;4935886;29;20048;-70
2021/12/04 09:23:20;;;;;;;20.33;9.98;;;;;;;1.31;73.80;99000.72;4935786;29;20044;-66
2021/12/04 09:25:52;;;;;;;22.23;10.38;;;;;;;1.38;73.31;98990.78;4935814;29;20525;-69
2021/12/04 09:28:25;;;;;;;19.65;9.88;;;;;;;1.28;72.93;98955.38;4936148;29;20123;-68
2021/12/04 09:31:16;;;;;;;17.80;8.70;;;;;;;1.43;73.58;98977.53;4936060;29;20142;-67
2021/12/04 10:00:42;;;;;;;7.55;3.78;;;;;;;1.65;69.30;98926.06;4938625;29;20058;-67
2021/12/04 10:06:25;;;;;;;3.53;1.92;;;;;;;1.55;68.12;98922.50;4938974;29;20044;-67
2021/12/04 10:12:03;;;;;;;5.95;2.85;;;;;;;1.77;68.45;98916.28;4938630;29;20081;-67
2021/12/04 10:20:22;;;;;;;6.85;3.25;;;;;;;1.79;67.55;98905.44;4938521;29;20044;-68
2021/12/04 10:33:40;;;;;;;9.48;3.65;;;;;;;2.44;66.45;98869.00;4938287;29;20074;-64
2021/12/04 10:36:10;;;;;;;6.88;3.53;;;;;;;2.50;66.77;98861.53;4938439;29;20070;-68
2021/12/04 10:38:42;;;;;;;;;;;;;;;2.67;66.17;98866.84;4938462;29;20492;-67
2021/12/04 10:41:12;;;;;;;10.75;4.50;;;;;;;2.80;66.31;98855.31;4938388;29;19930;-67
2021/12/04 10:43:41;;;;;;;5.70;3.13;;;;;;;2.92;65.85;98856.38;4938008;29;20051;-67
2021/12/04 10:46:14;;;;;;;8.53;4.30;;;;;;;3.06;65.29;98851.53;4938022;29;20039;-67
2021/12/04 10:48:51;;;;;;;9.40;4.30;;;;;;;3.27;64.77;98846.81;4938205;29;20051;-64
2021/12/04 10:51:26;;;;;;;7.85;3.20;;;;;;;3.20;63.68;98802.19;4937888;29;20047;-66
2021/12/04 10:53:56;;;;;;;8.02;3.92;;;;;;;3.40;63.49;98833.56;4937852;29;20103;-67
2021/12/04 10:56:35;;;;;;;8.80;3.45;;;;;;;3.54;62.70;98832.09;4938045;29;20051;-65
2021/12/04 10:59:18;;;;;;;9.00;3.75;;;;;;;3.58;62.40;98838.84;4937850;29;20561;-67
2021/12/04 11:02:06;;;;;;;11.52;3.45;;;;;;;3.58;61.94;98826.25;4937700;29;20043;-67
2021/12/04 11:04:42;;;;;;;14.75;4.93;;;;;;;3.50;61.75;98827.84;4936332;29;20046;-67
2021/12/04 11:07:34;;;;;;;6.82;3.40;;;;;;;3.57;62.54;98824.56;4928554;29;20047;-65
2021/12/04 11:21:23;;;;;;;4.65;2.08;;;;;;;3.78;61.06;98789.50;4928860;29;20095;-64
2021/12/04 11:26:51;;;;;;;6.35;3.20;;;;;;;3.59;60.73;98779.16;4928179;29;20043;-64
2021/12/04 11:40:09;;;;;;;7.65;3.25;;;;;;;3.21;60.44;98763.56;4926240;29;20138;-64
2021/12/04 11:42:41;;;;;;;7.57;4.03;;;;;;;3.58;60.81;98773.28;4927614;29;20036;-67
2021/12/04 11:45:17;;;;;;;11.13;3.97;;;;;;;3.79;60.10;98757.56;4927255;29;20491;-67
2021/12/04 11:47:50;;;;;;;5.75;2.90;;;;;;;4.00;59.44;98763.69;4926097;29;20075;-66
2021/12/04 11:50:25;;;;;;;5.40;2.50;;;;;;;4.15;59.11;98752.03;4932572;29;20398;-65
2021/12/04 11:52:56;;;;;;;7.03;3.22;;;;;;;4.26;59.35;98745.41;4935218;29;20055;-65
2021/12/04 11:55:28;;;;;;;6.88;3.35;;;;;;;4.38;58.78;98755.59;4935769;29;20516;-66
2021/12/04 11:57:58;;;;;;;5.45;2.67;;;;;;;4.39;58.10;98742.16;4936386;29;20079;-66
2021/12/04 12:00:29;;;;;;;;;;;;;;;4.28;57.91;98742.06;4930332;29;20054;-65
2021/12/04 12:03:09;;;;;;;6.90;2.55;;;;;;;4.08;58.44;98726.72;4920443;29;19965;-64
2021/12/04 12:05:45;;;;;;;3.78;2.45;;;;;;;3.91;58.26;98729.94;4925455;29;20071;-65
2021/12/04 12:08:27;;;;;;;4.75;2.80;;;;;;;3.61;59.17;98732.09;4925956;29;20131;-64
2021/12/04 12:11:00;;;;;;;7.57;3.30;;;;;;;3.47;59.17;98715.97;4930054;29;20040;-64
2021/12/04 12:13:33;;;;;;;5.75;3.42;;;;;;;2.97;59.69;98639.75;4936091;29;20142;-65
2021/12/04 12:16:08;;;;;;;7.20;3.75;;;;;;;3.40;59.56;98717.59;4935335;29;20052;-65
2021/12/04 12:18:48;;;;;;;6.32;3.40;;;;;;;3.47;59.99;98714.31;4932554;29;20077;-66
2021/12/04 12:21:23;;;;;;;3.70;2.20;;;;;;;3.40;59.21;98715.06;4941244;29;20122;-64
2021/12/04 12:26:50;;;;;;;5.72;2.65;;;;;;;3.13;59.93;98713.03;4921810;29;20056;-64
2021/12/04 12:32:20;;;;;;;4.93;2.90;;;;;;;3.03;60.42;98700.28;4935944;29;20040;-63
2021/12/04 12:37:30;;;;;;;7.03;3.30;;;;;;;2.98;60.55;98704.41;4935914;29;20052;-65
2021/12/04 12:40:01;;;;;;;6.32;2.97;;;;;;;2.94;61.23;98712.78;4926665;29;20047;-65
2021/12/04 12:42:33;;;;;;;5.72;3.10;;;;;;;2.94;61.47;98710.25;4926911;29;20557;-65
2021/12/04 12:45:17;;;;;;;4.68;2.30;;;;;;;2.99;61.05;98713.69;4934622;29;20043;-65
2021/12/04 12:47:52;;;;;;;7.75;3.38;;;;;;;3.01;61.44;98719.59;4931462;29;20062;-65
2021/12/04 12:50:30;;;;;;;8.88;3.60;;;;;;;3.13;61.57;98720.59;4934908;29;20043;-64
2021/12/04 12:53:09;;;;;;;8.65;3.53;;;;;;;3.21;60.58;98720.72;4925953;29;20103;-63
2021/12/04 12:55:40;;;;;;;7.47;3.15;;;;;;;3.12;61.16;98710.50;4928333;29;20421;-62
2021/12/04 12:58:15;;;;;;;5.93;2.40;;;;;;;3.04;60.03;98707.03;4931847;29;20047;-63
2021/12/04 13:12:02;;;;;;;8.18;2.42;;;;;;;2.81;59.98;98679.00;4929127;29;20043;-64
2021/12/04 13:14:36;;;;;;;5.30;2.22;;;;;;;2.77;59.95;98671.38;4929363;29;20043;-64
2021/12/04 13:17:15;;;;;;;5.28;2.88;;;;;;;2.88;59.66;98670.69;4931796;29;20055;-64
2021/12/04 13:19:50;;;;;;;7.20;2.85;;;;;;;2.94;59.93;98667.41;4932561;29;20051;-65
2021/12/04 13:22:24;;;;;;;5.68;3.08;;;;;;;2.59;59.58;98597.28;4926566;29;20075;-62
2021/12/04 13:24:57;;;;;;;4.07;2.58;;;;;;;3.04;59.49;98666.72;4926606;29;20036;-62
2021/12/04 13:30:00;;;;;;;4.93;2.30;;;;;;;3.00;58.91;98639.78;4937457;29;20482;-62
2021/12/04 13:32:34;;;;;;;6.20;2.90;;;;;;;3.08;58.83;98653.31;4938568;29;20093;-62
2021/12/04 13:35:09;;;;;;;6.07;3.13;;;;;;;2.89;58.44;98636.28;4954012;29;20107;-64
2021/12/04 13:37:39;;;;;;;7.15;3.45;;;;;;;3.06;58.40;98648.25;4935105;29;20471;-65
2021/12/04 13:40:11;;;;;;;;;;;;;;;3.15;58.16;98645.00;4948254;28;20056;-63
2021/12/04 13:42:41;;;;;;;8.15;3.38;;;;;;;3.20;57.98;98643.38;4947451;28;19923;-64
2021/12/04 13:45:13;;;;;;;6.43;3.25;;;;;;;2.68;58.59;98542.00;4936666;29;20055;-65
2021/12/04 13:47:44;;;;;;;4.93;2.83;;;;;;;3.37;57.90;98629.28;4943969;29;20130;-63
2021/12/04 13:53:08;;;;;;;6.13;3.10;;;;;;;3.49;57.12;98626.91;4932090;29;20561;-63
2021/12/04 13:55:42;;;;;;;6.63;2.80;;;;;;;3.46;57.03;98626.00;4930871;29;20510;-62
2021/12/04 13:58:15;;;;;;;5.78;3.38;;;;;;;3.44;56.74;98613.38;4930163;29;20530;-66
2021/12/04 14:00:48;;;;;;;5.10;2.05;;;;;;;3.39;57.15;98607.44;4927398;29;20167;-64
2021/12/04 14:03:21;;;;;;;;;;;;;;;3.26;55.99;98613.22;4930833;29;20139;-64
2021/12/04 14:05:50;;;;;;;5.18;2.65;;;;;;;3.30;56.04;98609.88;4927618;29;19927;-68
2021/12/04 14:08:19;;;;;;;;;;;;;;;3.24;56.08;98604.75;4923006;29;20058;-64
2021/12/04 14:10:51;;;;;;;3.30;1.77;;;;;;;3.18;55.47;98604.72;4934422;29;19945;-65
2021/12/04 14:13:23;;;;;;;5.82;2.83;;;;;;;3.16;55.84;98601.34;4931677;29;20334;-64
2021/12/04 14:15:55;;;;;;;6.20;2.17;;;;;;;3.24;56.36;98594.69;4947122;29;20554;-63
2021/12/04 14:18:30;;;;;;;5.22;2.42;;;;;;;3.13;55.23;98587.03;4924571;29;20052;-66
2021/12/04 14:21:01;;;;;;;5.85;2.65;;;;;;;3.11;55.06;98582.78;4941544;28;20071;-67
2021/12/04 14:23:33;;;;;;;6.95;3.35;;;;;;;3.01;55.77;98581.84;4927442;29;20405;-65
2021/12/04 14:26:04;;;;;;;6.05;2.85;;;;;;;2.99;55.59;98597.78;4930464;29;20055;-65
2021/12/04 14:28:38;;;;;;;4.63;2.28;;;;;;;2.88;55.99;98590.06;4930179;29;20512;-65
2021/12/04 14:31:07;;;;;;;6.15;2.95;;;;;;;2.80;55.52;98575.72;4931053;29;20063;-65
2021/12/04 14:33:39;;;;;;;4.43;2.42;;;;;;;2.81;55.60;98570.69;4929956;29;20044;-64